createdAt,value
2022-10-11T00:00:59.498Z,9.20
2022-10-11T00:03:27.727Z,9.20
2022-10-11T00:05:56.287Z,9.30
2022-10-11T00:08:25.804Z,9.20
2022-10-11T00:11:01.346Z,9.20
2022-10-11T00:13:30.183Z,9.10
2022-10-11T00:15:59.009Z,9.10
2022-10-11T00:18:28.026Z,9.00
2022-10-11T00:21:03.205Z,9.00
2022-10-11T00:23:33.506Z,9.00
2022-10-11T00:26:03.439Z,9.10
2022-10-11T00:28:32.318Z,9.10
2022-10-11T00:31:01.080Z,9.00
2022-10-11T00:33:29.496Z,9.00
2022-10-11T00:36:00.561Z,9.00
2022-10-11T00:38:30.057Z,9.00
2022-10-11T00:41:01.855Z,9.00
2022-10-11T00:43:32.102Z,9.00
2022-10-11T00:46:08.120Z,9.00
2022-10-11T00:48:42.936Z,8.90
2022-10-11T00:51:18.410Z,8.90
2022-10-11T00:53:49.073Z,8.90
2022-10-11T00:56:24.848Z,8.90
2022-10-11T00:58:54.171Z,8.80
2022-10-11T01:01:22.557Z,8.80
2022-10-11T01:03:50.890Z,8.80
2022-10-11T01:06:19.289Z,8.80
2022-10-11T01:08:48.287Z,8.80
2022-10-11T01:11:22.562Z,8.80
2022-10-11T01:14:07.146Z,8.80
2022-10-11T01:16:39.487Z,8.70
2022-10-11T01:19:26.113Z,8.70
2022-10-11T01:22:07.794Z,8.70
2022-10-11T01:25:08.325Z,8.60
2022-10-11T01:27:49.895Z,8.70
2022-10-11T01:30:28.575Z,8.70
2022-10-11T01:33:07.829Z,8.70
2022-10-11T01:35:42.664Z,8.70
2022-10-11T01:38:17.940Z,8.70
2022-10-11T01:40:51.316Z,8.70
2022-10-11T01:43:21.828Z,8.70
2022-10-11T01:45:52.767Z,8.70
2022-10-11T01:48:21.253Z,8.70
2022-10-11T01:50:52.113Z,8.60
2022-10-11T01:53:40.636Z,8.60
2022-10-11T01:56:23.994Z,8.60
2022-10-11T01:59:09.337Z,8.60
2022-10-11T02:01:50.265Z,8.50
2022-10-11T02:04:28.493Z,8.50
2022-10-11T02:07:04.113Z,8.50
2022-10-11T02:09:37.534Z,8.50
2022-10-11T02:12:12.098Z,8.40
2022-10-11T02:14:44.213Z,8.40
2022-10-11T02:17:18.153Z,8.40
2022-10-11T02:19:50.536Z,8.40
2022-10-11T02:22:30.803Z,8.40
2022-10-11T02:25:03.343Z,8.40
2022-10-11T02:27:34.202Z,8.30
2022-10-11T02:30:07.363Z,8.30
2022-10-11T02:32:39.789Z,8.20
2022-10-11T02:35:09.183Z,8.20
2022-10-11T02:37:43.843Z,8.20
2022-10-11T02:40:17.108Z,8.10
2022-10-11T02:42:50.742Z,8.20
2022-10-11T02:45:24.654Z,8.10
2022-10-11T02:47:55.117Z,8.20
2022-10-11T02:50:23.999Z,8.20
2022-10-11T02:52:52.204Z,8.30
2022-10-11T02:55:20.875Z,8.30
2022-10-11T02:57:49.349Z,8.30
2022-10-11T03:00:18.221Z,8.30
2022-10-11T03:02:46.509Z,8.30
2022-10-11T03:05:16.140Z,8.40
2022-10-11T03:07:44.577Z,8.30
2022-10-11T03:10:12.890Z,8.40
2022-10-11T03:12:41.837Z,8.40
2022-10-11T03:15:11.242Z,8.30
2022-10-11T03:17:39.664Z,8.30
2022-10-11T03:20:09.066Z,8.40
2022-10-11T03:22:38.778Z,8.40
2022-10-11T03:25:07.584Z,8.30
2022-10-11T03:27:35.849Z,8.40
2022-10-11T03:30:05.042Z,8.40
2022-10-11T03:32:33.251Z,8.40
2022-10-11T03:35:01.676Z,8.30
2022-10-11T03:37:30.048Z,8.30
2022-10-11T03:39:59.583Z,8.30
2022-10-11T03:42:27.853Z,8.20
2022-10-11T03:44:57.152Z,8.20
2022-10-11T03:47:25.482Z,8.10
2022-10-11T03:49:53.762Z,8.10
2022-10-11T03:52:21.897Z,8.10
2022-10-11T03:54:50.199Z,8.10
2022-10-11T03:57:20.298Z,8.00
2022-10-11T03:59:49.249Z,8.00
2022-10-11T04:02:18.136Z,8.10
2022-10-11T04:04:46.728Z,8.10
2022-10-11T04:07:14.943Z,8.10
2022-10-11T04:09:43.089Z,8.20
2022-10-11T04:12:11.445Z,8.10
2022-10-11T04:14:40.983Z,8.10
2022-10-11T04:17:09.342Z,8.10
2022-10-11T04:19:38.063Z,8.10
2022-10-11T04:22:06.511Z,8.10
2022-10-11T04:24:35.047Z,8.20
2022-10-11T04:27:03.320Z,8.10
2022-10-11T04:29:32.783Z,8.10
2022-10-11T04:32:02.625Z,8.10
2022-10-11T04:34:31.561Z,8.10
2022-10-11T04:36:59.801Z,8.10
2022-10-11T04:39:28.195Z,8.10
2022-10-11T04:41:56.469Z,8.10
2022-10-11T04:44:24.565Z,8.10
2022-10-11T04:46:53.096Z,8.10
2022-10-11T04:49:23.421Z,8.00
2022-10-11T04:51:51.887Z,8.00
2022-10-11T04:54:19.992Z,7.90
2022-10-11T04:56:48.421Z,7.90
2022-10-11T04:59:16.545Z,8.00
2022-10-11T05:01:44.815Z,7.90
2022-10-11T05:04:13.617Z,7.90
2022-10-11T05:06:43.431Z,7.80
2022-10-11T05:09:11.540Z,7.80
2022-10-11T05:11:39.887Z,7.90
2022-10-11T05:14:08.116Z,7.80
2022-10-11T05:16:36.337Z,7.90
2022-10-11T05:19:04.638Z,7.90
2022-10-11T05:21:33.140Z,7.90
2022-10-11T05:24:02.642Z,7.80
2022-10-11T05:26:30.974Z,7.80
2022-10-11T05:28:59.189Z,7.80
2022-10-11T05:31:27.408Z,7.80
2022-10-11T05:33:55.873Z,7.70
2022-10-11T05:36:24.082Z,7.70
2022-10-11T05:38:52.227Z,7.60
2022-10-11T05:41:22.348Z,7.60
2022-10-11T05:43:50.520Z,7.60
2022-10-11T05:46:18.628Z,7.60
2022-10-11T05:48:47.314Z,7.60
2022-10-11T05:51:15.470Z,7.60
2022-10-11T05:53:43.678Z,7.60
2022-10-11T05:56:23.783Z,7.60
2022-10-11T05:58:52.310Z,7.60
2022-10-11T06:01:23.050Z,7.60
2022-10-11T06:03:51.628Z,7.70
2022-10-11T06:06:20.915Z,7.70
2022-10-11T06:08:49.661Z,7.70
2022-10-11T06:11:20.435Z,7.70
2022-10-11T06:13:50.109Z,7.70
2022-10-11T06:16:18.295Z,7.70
2022-10-11T06:18:46.718Z,7.80
2022-10-11T06:21:15.586Z,7.80
2022-10-11T06:23:44.506Z,7.90
2022-10-11T06:26:12.928Z,8.00
2022-10-11T06:28:41.189Z,8.00
2022-10-11T06:31:11.434Z,8.00
2022-10-11T06:33:39.754Z,8.10
2022-10-11T06:36:10.966Z,8.10
2022-10-11T06:38:44.555Z,8.20
2022-10-11T06:41:15.435Z,8.30
2022-10-11T06:43:44.135Z,8.30
2022-10-11T06:46:14.003Z,8.40
2022-10-11T06:48:43.915Z,8.50
2022-10-11T06:51:12.669Z,8.60
2022-10-11T06:53:41.075Z,8.60
2022-10-11T06:56:13.676Z,8.80
2022-10-11T06:58:42.035Z,8.90
2022-10-11T07:01:12.514Z,9.00
2022-10-11T07:03:42.618Z,9.20
2022-10-11T07:06:12.443Z,9.40
2022-10-11T07:08:41.770Z,9.50
2022-10-11T07:11:11.678Z,9.70
2022-10-11T07:13:40.867Z,9.90
2022-10-11T07:16:11.019Z,10.10
2022-10-11T07:18:40.160Z,10.40
2022-10-11T07:21:12.352Z,10.70
2022-10-11T07:23:41.413Z,11.00
2022-10-11T07:26:10.910Z,11.60
2022-10-11T07:28:40.446Z,12.50
2022-10-11T07:31:11.081Z,13.60
2022-10-11T07:33:39.340Z,14.20
2022-10-11T07:36:09.828Z,15.00
2022-10-11T07:38:41.464Z,15.60
2022-10-11T07:41:10.703Z,16.10
2022-10-11T07:43:39.536Z,16.60
2022-10-11T07:46:09.091Z,17.10
2022-10-11T07:48:38.321Z,17.70
2022-10-11T07:51:10.525Z,18.10
2022-10-11T07:53:42.615Z,18.40
2022-10-11T07:56:13.843Z,18.80
2022-10-11T07:58:42.836Z,19.10
2022-10-11T08:01:12.360Z,19.50
2022-10-11T08:03:40.759Z,19.80
2022-10-11T08:06:12.646Z,20.20
2022-10-11T08:08:40.938Z,20.60
2022-10-11T08:11:09.581Z,20.90
2022-10-11T08:13:37.843Z,21.10
2022-10-11T08:16:12.240Z,21.30
2022-10-11T08:18:40.660Z,21.60
2022-10-11T08:21:11.753Z,21.90
2022-10-11T08:23:40.319Z,22.20
2022-10-11T08:26:09.746Z,22.40
2022-10-11T08:28:38.467Z,22.60
2022-10-11T08:31:06.919Z,22.80
2022-10-11T08:33:35.341Z,23.00
2022-10-11T08:36:05.725Z,23.20
2022-10-11T08:38:37.205Z,23.50
2022-10-11T08:41:15.807Z,23.70
2022-10-11T08:43:55.529Z,23.80
2022-10-11T08:46:28.948Z,23.90
2022-10-11T08:48:57.370Z,24.20
2022-10-11T08:51:29.356Z,24.40
2022-10-11T08:54:07.590Z,24.50
2022-10-11T08:56:52.062Z,24.70
2022-10-11T08:59:30.437Z,24.80
2022-10-11T09:02:05.945Z,24.80
2022-10-11T09:04:35.131Z,24.80
2022-10-11T09:07:08.835Z,24.90
2022-10-11T09:10:01.965Z,25.00
2022-10-11T09:12:41.526Z,25.10
2022-10-11T09:15:27.438Z,25.20
2022-10-11T09:18:13.007Z,25.00
2022-10-11T09:20:57.417Z,24.80
2022-10-11T09:23:40.894Z,24.70
2022-10-11T09:26:15.841Z,24.70
2022-10-11T09:29:00.045Z,24.50
2022-10-11T09:31:29.559Z,24.00
2022-10-11T09:34:00.176Z,23.80
2022-10-11T09:36:43.181Z,23.80
2022-10-11T09:39:25.836Z,24.10
2022-10-11T09:42:00.406Z,24.00
2022-10-11T09:44:31.226Z,23.70
2022-10-11T09:46:59.453Z,23.70
2022-10-11T09:49:32.583Z,23.80
2022-10-11T09:52:03.974Z,23.60
2022-10-11T09:54:42.671Z,23.30
2022-10-11T09:57:22.837Z,23.00
2022-10-11T10:00:01.584Z,23.00
2022-10-11T10:02:30.196Z,22.90
2022-10-11T10:05:01.682Z,22.80
2022-10-11T10:07:31.880Z,22.80
2022-10-11T10:10:01.393Z,22.30
2022-10-11T10:12:32.382Z,22.00
2022-10-11T10:15:07.690Z,21.50
2022-10-11T10:17:37.201Z,21.50
2022-10-11T10:20:06.598Z,21.30
2022-10-11T10:22:36.631Z,21.10
2022-10-11T10:25:08.226Z,21.30
2022-10-11T10:27:38.022Z,21.00
2022-10-11T10:30:16.188Z,21.20
2022-10-11T10:32:51.135Z,21.20
2022-10-11T10:35:30.414Z,20.60
2022-10-11T10:38:07.975Z,20.80
2022-10-11T10:40:44.199Z,21.10
2022-10-11T10:43:20.546Z,21.20
2022-10-11T10:46:25.518Z,21.10
2022-10-11T10:52:03.332Z,20.60
2022-10-11T10:54:43.871Z,20.40
2022-10-11T10:57:17.919Z,20.40
2022-10-11T11:00:07.386Z,20.40
2022-10-11T11:02:44.072Z,20.50
2022-10-11T11:05:24.518Z,20.70
2022-10-11T11:07:57.707Z,20.50
2022-10-11T11:10:34.883Z,20.40
2022-10-11T11:13:19.425Z,20.40
2022-10-11T11:15:57.082Z,20.60
2022-10-11T11:18:33.750Z,21.10
2022-10-11T11:21:14.399Z,21.70
2022-10-11T11:23:47.804Z,21.60
2022-10-11T11:26:21.526Z,21.60
2022-10-11T11:29:00.529Z,21.80
2022-10-11T11:31:44.258Z,22.10
2022-10-11T11:34:17.793Z,21.70
2022-10-11T11:36:49.010Z,21.70
2022-10-11T11:39:20.260Z,21.20
2022-10-11T11:41:53.382Z,20.80
2022-10-11T11:44:27.731Z,20.40
2022-10-11T11:47:02.521Z,20.30
2022-10-11T11:49:36.891Z,20.00
2022-10-11T11:52:06.779Z,20.00
2022-10-11T11:54:45.717Z,19.70
2022-10-11T11:57:24.510Z,19.40
2022-10-11T11:59:58.325Z,19.60
2022-10-11T12:02:40.279Z,20.00
2022-10-11T12:05:10.276Z,20.30
2022-10-11T12:07:51.399Z,20.50
2022-10-11T12:10:37.198Z,20.80
2022-10-11T12:13:16.782Z,20.90
2022-10-11T12:16:00.877Z,20.70
2022-10-11T12:18:31.840Z,20.40
2022-10-11T12:21:06.448Z,19.60
2022-10-11T12:23:47.647Z,19.30
2022-10-11T12:26:44.076Z,19.20
2022-10-11T12:29:44.717Z,19.00
2022-10-11T12:32:49.438Z,19.00
2022-10-11T12:35:51.943Z,18.90
2022-10-11T12:38:23.215Z,18.90
2022-10-11T12:40:54.248Z,19.10
2022-10-11T12:43:45.587Z,19.30
2022-10-11T12:46:43.648Z,19.30
2022-10-11T12:49:32.926Z,19.50
2022-10-11T12:52:04.781Z,19.30
2022-10-11T12:55:04.599Z,19.20
2022-10-11T12:58:09.884Z,19.20
2022-10-11T13:00:45.794Z,19.30
2022-10-11T13:03:32.277Z,19.40
2022-10-11T13:06:11.023Z,19.40
2022-10-11T13:08:44.441Z,19.60
2022-10-11T13:11:19.796Z,19.50
2022-10-11T13:13:53.631Z,19.50
2022-10-11T13:16:24.141Z,19.50
2022-10-11T13:18:57.400Z,19.50
2022-10-11T13:21:32.645Z,19.50
2022-10-11T13:24:05.448Z,19.50
2022-10-11T13:26:34.350Z,19.60
2022-10-11T13:29:02.740Z,19.60
2022-10-11T13:31:30.930Z,19.60
2022-10-11T13:34:00.333Z,19.50
2022-10-11T13:36:29.107Z,19.60
2022-10-11T13:38:59.123Z,19.60
2022-10-11T13:41:30.931Z,19.30
2022-10-11T13:44:00.929Z,19.40
2022-10-11T13:46:31.345Z,19.40
2022-10-11T13:49:01.322Z,19.50
2022-10-11T13:51:33.544Z,19.60
2022-10-11T13:54:04.353Z,19.50
2022-10-11T13:56:37.967Z,19.40
2022-10-11T13:59:06.095Z,19.20
2022-10-11T14:01:40.937Z,19.20
2022-10-11T14:04:11.877Z,19.20
2022-10-11T14:06:43.172Z,18.90
2022-10-11T14:09:20.754Z,18.70
2022-10-11T14:11:51.321Z,18.50
2022-10-11T14:14:42.057Z,18.70
2022-10-11T14:17:17.331Z,18.90
2022-10-11T14:19:46.928Z,18.80
2022-10-11T14:22:17.096Z,18.80
2022-10-11T14:24:49.011Z,18.80
2022-10-11T14:27:22.304Z,18.90
2022-10-11T14:30:12.965Z,19.10
2022-10-11T14:32:39.835Z,18.90
2022-10-11T14:35:11.857Z,19.00
2022-10-11T14:37:40.140Z,19.00
2022-10-11T14:40:20.127Z,18.80
2022-10-11T14:42:50.314Z,18.50
2022-10-11T14:45:21.355Z,18.50
2022-10-11T14:47:49.931Z,18.30
2022-10-11T14:50:34.875Z,18.30
2022-10-11T14:53:04.135Z,18.50
2022-10-11T14:55:32.994Z,18.80
2022-10-11T14:58:02.876Z,18.90
2022-10-11T15:00:33.039Z,18.50
2022-10-11T15:03:01.305Z,18.20
2022-10-11T15:05:34.112Z,18.20
2022-10-11T15:08:02.724Z,18.20
2022-10-11T15:10:35.082Z,18.30
2022-10-11T15:13:07.038Z,18.10
2022-10-11T15:15:37.848Z,18.00
2022-10-11T15:18:08.246Z,17.70
2022-10-11T15:20:38.582Z,17.50
2022-10-11T15:23:09.587Z,17.50
2022-10-11T15:25:38.764Z,17.40
2022-10-11T15:28:25.412Z,17.40
2022-10-11T15:30:53.686Z,17.30
2022-10-11T15:33:21.983Z,17.20
2022-10-11T15:35:50.429Z,17.10
2022-10-11T15:38:21.385Z,16.90
2022-10-11T15:40:50.526Z,17.00
2022-10-11T15:43:24.706Z,17.00
2022-10-11T15:45:53.899Z,17.00
2022-10-11T15:48:23.986Z,17.00
2022-10-11T15:50:52.478Z,17.00
2022-10-11T15:53:23.466Z,17.00
2022-10-11T15:55:53.427Z,16.90
2022-10-11T15:58:26.294Z,16.80
2022-10-11T16:00:56.945Z,16.70
2022-10-11T16:03:28.671Z,16.60
2022-10-11T16:06:03.826Z,16.60
2022-10-11T16:08:33.558Z,16.60
2022-10-11T16:11:02.132Z,16.60
2022-10-11T16:13:31.923Z,16.50
2022-10-11T16:16:02.099Z,16.50
2022-10-11T16:18:35.104Z,16.30
2022-10-11T16:21:06.879Z,16.30
2022-10-11T16:23:35.972Z,16.30
2022-10-11T16:26:06.525Z,16.20
2022-10-11T16:28:38.016Z,16.20
2022-10-11T16:31:08.305Z,16.10
2022-10-11T16:33:45.738Z,16.10
2022-10-11T16:36:35.666Z,16.20
2022-10-11T16:39:07.668Z,16.20
2022-10-11T16:41:36.139Z,16.10
2022-10-11T16:44:08.671Z,16.10
2022-10-11T16:46:37.140Z,16.00
2022-10-11T16:49:05.809Z,16.00
2022-10-11T16:51:34.386Z,15.90
2022-10-11T16:54:03.032Z,15.80
2022-10-11T16:56:33.937Z,15.70
2022-10-11T16:59:05.960Z,15.60
2022-10-11T17:01:34.189Z,15.50
2022-10-11T17:04:02.253Z,15.50
2022-10-11T17:06:31.152Z,15.50
2022-10-11T17:08:59.638Z,15.40
2022-10-11T17:11:28.043Z,15.30
2022-10-11T17:13:56.635Z,15.20
2022-10-11T17:16:26.222Z,15.10
2022-10-11T17:18:54.319Z,15.00
2022-10-11T17:21:23.600Z,14.90
2022-10-11T17:23:51.813Z,14.80
2022-10-11T17:26:21.877Z,14.80
2022-10-11T17:28:50.586Z,14.60
2022-10-11T17:31:18.860Z,14.60
2022-10-11T17:33:48.801Z,14.40
2022-10-11T17:36:20.973Z,14.40
2022-10-11T17:38:49.747Z,14.30
2022-10-11T17:41:18.861Z,14.20
2022-10-11T17:43:47.249Z,14.20
2022-10-11T17:46:17.263Z,14.20
2022-10-11T17:48:45.898Z,14.10
2022-10-11T17:51:17.050Z,14.00
2022-10-11T17:53:45.791Z,13.90
2022-10-11T17:56:16.006Z,13.90
2022-10-11T17:58:45.322Z,13.90
2022-10-11T18:01:15.484Z,13.80
2022-10-11T18:03:44.826Z,13.90
2022-10-11T18:06:15.846Z,13.90
2022-10-11T18:08:44.177Z,13.80
2022-10-11T18:11:14.277Z,13.60
2022-10-11T18:13:46.404Z,13.40
2022-10-11T18:16:15.654Z,13.30
2022-10-11T18:18:44.732Z,13.30
2022-10-11T18:21:13.613Z,13.30
2022-10-11T18:23:43.643Z,13.30
2022-10-11T18:26:13.174Z,13.20
2022-10-11T18:28:42.318Z,13.10
2022-10-11T18:31:14.082Z,13.10
2022-10-11T18:33:43.487Z,13.10
2022-10-11T18:36:13.584Z,13.00
2022-10-11T18:38:46.799Z,13.00
2022-10-11T18:41:17.138Z,13.00
2022-10-11T18:43:50.443Z,13.00
2022-10-11T18:46:19.223Z,12.90
2022-10-11T18:48:49.258Z,12.90
2022-10-11T18:51:19.946Z,12.90
2022-10-11T18:53:50.444Z,12.80
2022-10-11T18:56:21.964Z,12.90
2022-10-11T18:58:51.422Z,12.80
2022-10-11T19:01:22.552Z,12.80
2022-10-11T19:03:52.795Z,12.80
2022-10-11T19:06:23.001Z,12.80
2022-10-11T19:08:56.232Z,12.70
2022-10-11T19:11:25.502Z,12.60
2022-10-11T19:13:57.495Z,12.50
2022-10-11T19:16:26.857Z,12.50
2022-10-11T19:18:55.410Z,12.50
2022-10-11T19:21:23.712Z,12.50
2022-10-11T19:23:54.058Z,12.50
2022-10-11T19:26:28.935Z,12.50
2022-10-11T19:28:58.857Z,12.50
2022-10-11T19:31:27.808Z,12.40
2022-10-11T19:33:57.282Z,12.40
2022-10-11T19:36:25.738Z,12.30
2022-10-11T19:38:56.776Z,12.30
2022-10-11T19:41:27.648Z,12.20
2022-10-11T19:43:58.098Z,12.20
2022-10-11T19:46:49.932Z,12.20
2022-10-11T19:49:20.377Z,12.00
2022-10-11T19:51:48.675Z,11.90
2022-10-11T19:54:18.621Z,11.80
2022-10-11T19:56:46.972Z,11.60
2022-10-11T19:59:15.636Z,11.50
2022-10-11T20:01:48.113Z,11.40
2022-10-11T20:07:09.442Z,11.10
2022-10-11T20:09:39.399Z,11.10
2022-10-11T20:12:08.076Z,11.00
2022-10-11T20:14:36.543Z,11.00
2022-10-11T20:17:05.008Z,10.90
2022-10-11T20:19:33.161Z,10.80
2022-10-11T20:22:01.988Z,10.70
2022-10-11T20:24:33.643Z,10.60
2022-10-11T20:27:04.887Z,10.50
2022-10-11T20:29:33.758Z,10.50
2022-10-11T20:32:01.915Z,10.60
2022-10-11T20:34:30.667Z,10.60
2022-10-11T20:36:59.691Z,10.60
2022-10-11T20:39:28.052Z,10.50
2022-10-11T20:41:56.221Z,10.50
2022-10-11T20:44:26.043Z,10.50
2022-10-11T20:46:54.209Z,10.50
2022-10-11T20:49:22.635Z,10.60
2022-10-11T20:51:51.351Z,10.60
2022-10-11T20:54:19.592Z,10.60
2022-10-11T20:56:47.886Z,10.70
2022-10-11T20:59:16.267Z,10.80
2022-10-11T21:01:45.910Z,10.90
2022-10-11T21:04:19.196Z,10.80
2022-10-11T21:06:48.165Z,10.80
2022-10-11T21:09:17.176Z,10.70
2022-10-11T21:11:46.212Z,10.80
2022-10-11T21:14:14.473Z,10.80
2022-10-11T21:16:43.130Z,10.90
2022-10-11T21:19:16.363Z,10.90
2022-10-11T21:21:49.705Z,10.90
2022-10-11T21:24:22.125Z,10.90
2022-10-11T21:26:50.460Z,10.90
2022-10-11T21:29:19.164Z,11.00
2022-10-11T21:31:47.506Z,10.90
2022-10-11T21:34:17.250Z,10.90
2022-10-11T21:36:45.511Z,10.90
2022-10-11T21:39:13.703Z,10.80
2022-10-11T21:41:42.923Z,10.80
2022-10-11T21:44:11.443Z,10.80
2022-10-11T21:47:05.487Z,10.80
2022-10-11T21:49:29.405Z,10.80
2022-10-11T21:51:58.229Z,10.80
2022-10-11T21:54:26.736Z,10.90
2022-10-11T21:56:55.242Z,10.90
2022-10-11T21:59:23.438Z,10.90
2022-10-11T22:01:51.748Z,10.80
2022-10-11T22:04:20.364Z,10.80
2022-10-11T22:06:50.001Z,10.80
2022-10-11T22:09:18.192Z,10.80
2022-10-11T22:11:46.586Z,10.80
2022-10-11T22:14:15.092Z,10.80
2022-10-11T22:16:43.345Z,10.80
2022-10-11T22:19:11.874Z,10.80
2022-10-11T22:21:44.942Z,10.80
2022-10-11T22:24:15.025Z,10.80
2022-10-11T22:26:43.547Z,10.80
2022-10-11T22:29:11.741Z,10.70
2022-10-11T22:31:40.109Z,10.70
2022-10-11T22:34:08.484Z,10.60
2022-10-11T22:36:36.780Z,10.70
2022-10-11T22:39:08.104Z,10.60
2022-10-11T22:41:38.573Z,10.60
2022-10-11T22:44:07.266Z,10.60
2022-10-11T22:46:35.419Z,10.60
2022-10-11T22:49:03.864Z,10.50
2022-10-11T22:51:32.152Z,10.50
2022-10-11T22:54:00.261Z,10.50
2022-10-11T22:56:28.830Z,10.50
2022-10-11T22:58:59.844Z,10.50
2022-10-11T23:01:28.056Z,10.50
2022-10-11T23:03:56.784Z,10.50
2022-10-11T23:06:25.195Z,10.50
2022-10-11T23:08:53.393Z,10.40
2022-10-11T23:11:21.643Z,10.40
2022-10-11T23:13:50.011Z,10.40
2022-10-11T23:16:19.575Z,10.30
2022-10-11T23:18:47.852Z,10.30
2022-10-11T23:21:16.144Z,10.30
2022-10-11T23:23:44.345Z,10.30
2022-10-11T23:26:15.494Z,10.30
2022-10-11T23:28:45.013Z,10.30
2022-10-11T23:31:15.171Z,10.30
2022-10-11T23:33:45.472Z,10.30
2022-10-11T23:36:16.051Z,10.30
2022-10-11T23:38:44.380Z,10.20
2022-10-11T23:41:13.028Z,10.20
2022-10-11T23:43:41.084Z,10.20
2022-10-11T23:46:09.146Z,10.20
2022-10-11T23:48:37.720Z,10.10
2022-10-11T23:51:07.586Z,10.10
2022-10-11T23:53:36.127Z,10.10
2022-10-11T23:56:05.055Z,10.00
2022-10-11T23:58:33.375Z,9.90
